Tropical Cyclones
[Index]
Season 2023-2024 Tropical Cyclone KIRRILY Track Map
Season 2023-2024 Summaries: [BoM-AU]
<<- Previous TC | BoM 2023-2024 Season | Next TC ->>

click for intensity scale information  Lat/long Grid: Show Hide

 Date Labels: Show Hide

Bureau of Meteorology Tropical Cyclone Data

Name: KIRRILY

17 Jan 2024 00:00 UTC to 26 Jan 2024 00:00 UTC

    date/time    lat    long    hPa   cat  kts
2024-01-17 00   15.2   150.9   1004         15          
2024-01-17 06   14.5   151.5   1002         15          
2024-01-17 12   14.6   152.1   1002         15          
2024-01-17 18   14.6   153.2   1001         15          
2024-01-18 00   14.5   154.5   1001         15          
2024-01-18 06   14.4   154.8   1000         15          
2024-01-18 12   14.4   155.4    999         15          
2024-01-18 18   14.2   155.7    999         20          
2024-01-19 00   13.9   156.3    999         20          
2024-01-19 06   13.7   156.0    997         20          
2024-01-19 12   13.7   155.8    997         25          
2024-01-19 18   14.0   156.0    996         25          
2024-01-20 00   14.4   156.3    996         25          
2024-01-20 06   14.8   155.9    996         25          
2024-01-20 12   14.8   155.2    998         25          
2024-01-20 18   14.8   154.6    999         25          
2024-01-21 00   15.2   154.6    998         25          
2024-01-21 06   15.3   154.3    996         25          
2024-01-21 12   15.4   154.1    999         25          
2024-01-21 18   15.4   153.9    998         30          
2024-01-22 00   15.4   153.8    998         30          
2024-01-22 06   15.6   153.9    998         30          
2024-01-22 12   15.8   153.9    998         30          
2024-01-22 18   16.0   153.9    996         30          
2024-01-23 00   16.3   153.7    996         35          
2024-01-23 06   16.8   153.5    994    1    35          
2024-01-23 12   17.1   153.3    994    1    35          
2024-01-23 18   17.2   152.9    991    1    40          
2024-01-24 00   17.1   152.7    993    1    40          
2024-01-24 06   17.4   152.4    990    1    40          
2024-01-24 12   17.6   151.0    990    1    40          
2024-01-24 18   17.7   150.2    990    1    40          
2024-01-25 00   18.1   149.4    990    1    50          
2024-01-25 06   18.7   147.7    980    2    65          
2024-01-25 12   19.0   146.4    978    2    60          
2024-01-25 18   19.6   145.2    994    1    30          
2024-01-26 00   20.8   144.0    998         25          
Winds are 10-min average.

Tropical cyclone tracks developed by Michael Bath using data from the Bureau of Meteorology and Google Maps.


Document: tropical_cyclone_kirrily.htm
Updated: 7 February 2024
[Australian Severe Weather index] [Copyright Notice] [Email Contacts] [Search This Site] [Privacy Policy]


Main Index Home Page Stock Weather Photos Extreme Storms Discussion Storm News and Storm Chasing Reports Tropical Cyclones / Hurricanes / Typhoons Weather Data and Links Wild Fires / Bushfires Weather Observation Techniques Weather Picture Catalogue Tornado Pictures and Reports Stock Video Footage and DVDs for sale